Time;durP1;ratioP1;P1;durP2;ratioP2;P2;SDS_P1;SDS_P2;PMS_P1;PMS_P2;Temp;Humidity;BMP_temperature;BMP_pressure;BME280_temperature;BME280_humidity;BME280_pressure;Samples;Min_cycle;Max_cycle;Signal;HPM_P1;HPM_P2
2023/03/19 00:01:48;;;;;;;11.05;9.85;;;22.10;60.10;;;;;;5031257;28;20280;-70
2023/03/19 00:04:36;;;;;;;13.30;9.15;;;22.10;60.10;;;;;;5031553;28;20689;-67
2023/03/19 00:07:24;;;;;;;12.15;9.40;;;22.10;60.10;;;;;;5032248;28;20612;-70
2023/03/19 00:10:13;;;;;;;10.20;8.82;;;22.10;60.30;;;;;;5030791;28;20710;-69
2023/03/19 00:13:02;;;;;;;12.65;9.50;;;22.10;60.30;;;;;;5030009;28;20284;-68
2023/03/19 00:15:50;;;;;;;10.23;8.48;;;22.00;60.30;;;;;;5030993;28;20202;-66
2023/03/19 00:18:38;;;;;;;9.48;8.50;;;22.00;60.30;;;;;;5031778;28;20328;-65
2023/03/19 00:21:26;;;;;;;9.05;8.15;;;22.00;60.30;;;;;;5030708;28;20293;-69
2023/03/19 00:24:17;;;;;;;9.77;8.23;;;21.90;60.20;;;;;;5031823;28;20202;-65
2023/03/19 00:27:05;;;;;;;8.60;7.80;;;21.90;60.20;;;;;;5030847;28;20678;-69
2023/03/19 00:29:55;;;;;;;11.57;8.65;;;21.90;60.20;;;;;;5031066;28;20312;-68
2023/03/19 00:32:43;;;;;;;10.00;8.18;;;21.90;60.20;;;;;;5030317;28;20291;-68
2023/03/19 00:35:31;;;;;;;10.18;8.90;;;21.90;60.20;;;;;;5030373;28;20697;-70
2023/03/19 00:38:19;;;;;;;8.90;7.85;;;21.90;60.10;;;;;;5029799;28;20614;-68
2023/03/19 00:41:07;;;;;;;10.68;8.32;;;21.90;60.10;;;;;;5030380;28;20272;-67
2023/03/19 00:43:57;;;;;;;9.88;8.85;;;21.90;60.00;;;;;;5031662;28;20217;-68
2023/03/19 00:46:46;;;;;;;10.60;8.40;;;22.00;60.10;;;;;;5030901;28;20212;-66
2023/03/19 00:49:34;;;;;;;11.07;9.10;;;22.00;60.00;;;;;;5031562;28;20299;-69
2023/03/19 00:52:22;;;;;;;10.10;8.32;;;22.00;59.90;;;;;;5031034;28;20285;-66
2023/03/19 00:55:11;;;;;;;8.75;7.88;;;22.00;59.80;;;;;;5031381;28;20221;-69
2023/03/19 00:57:59;;;;;;;9.18;8.18;;;22.00;59.80;;;;;;5030563;28;20202;-67
2023/03/19 01:00:47;;;;;;;9.82;8.32;;;22.00;59.80;;;;;;5029827;28;20709;-68
2023/03/19 01:03:37;;;;;;;11.23;8.30;;;22.00;59.70;;;;;;5030516;28;20252;-68
2023/03/19 01:06:25;;;;;;;9.02;8.13;;;22.00;59.70;;;;;;5030378;28;20202;-69
2023/03/19 01:09:13;;;;;;;10.00;7.95;;;21.80;71.10;;;;;;5030892;28;20695;-69
2023/03/19 01:12:03;;;;;;;10.88;8.07;;;22.00;59.60;;;;;;5030082;28;20206;-69
2023/03/19 01:14:51;;;;;;;11.30;8.90;;;22.00;59.60;;;;;;5031074;28;20307;-68
2023/03/19 01:17:39;;;;;;;10.32;7.32;;;21.90;59.50;;;;;;5030883;28;20733;-68
2023/03/19 01:20:28;;;;;;;8.18;7.43;;;21.90;59.40;;;;;;5031304;28;20351;-67
2023/03/19 01:23:17;;;;;;;9.30;8.05;;;21.90;59.40;;;;;;5030937;28;20238;-70
2023/03/19 01:26:05;;;;;;;8.88;7.97;;;21.90;59.50;;;;;;5030682;28;20284;-70
2023/03/19 01:28:53;;;;;;;8.80;7.97;;;21.90;59.60;;;;;;5029675;28;20202;-68
2023/03/19 01:31:41;;;;;;;9.00;7.78;;;21.80;59.50;;;;;;5030998;28;20629;-64
2023/03/19 01:34:29;;;;;;;9.52;7.65;;;21.90;59.60;;;;;;5031163;28;20690;-70
2023/03/19 01:37:19;;;;;;;9.38;7.13;;;21.90;59.60;;;;;;5030683;28;20233;-68
2023/03/19 01:40:10;;;;;;;9.10;7.65;;;21.90;59.60;;;;;;5030570;28;20741;-67
2023/03/19 01:43:13;;;;;;;10.63;7.65;;;21.90;59.50;;;;;;5010324;28;20349;-66
2023/03/19 01:46:07;;;;;;;8.18;7.32;;;21.90;59.40;;;;;;5013840;28;20238;-69
2023/03/19 01:48:58;;;;;;;10.75;7.97;;;22.00;59.40;;;;;;5014375;28;20210;-68
2023/03/19 01:51:47;;;;;;;8.32;7.22;;;22.00;59.30;;;;;;5013956;28;20202;-70
2023/03/19 01:54:36;;;;;;;9.68;7.85;;;22.00;59.20;;;;;;5014127;28;20301;-69
2023/03/19 01:57:25;;;;;;;7.65;6.72;;;22.00;59.10;;;;;;5014496;28;20261;-66
2023/03/19 02:00:15;;;;;;;10.93;7.57;;;22.00;59.10;;;;;;5014964;28;20308;-71
2023/03/19 02:03:03;;;;;;;8.25;7.40;;;22.00;59.00;;;;;;5013810;28;20205;-71
2023/03/19 02:05:52;;;;;;;8.05;7.25;;;22.00;58.90;;;;;;5014462;28;20276;-72
2023/03/19 02:08:42;;;;;;;9.35;7.43;;;22.00;59.00;;;;;;5014223;28;20281;-71
2023/03/19 02:11:32;;;;;;;9.38;7.47;;;21.90;58.80;;;;;;5014167;28;20214;-69
2023/03/19 02:14:20;;;;;;;9.15;7.40;;;21.90;58.90;;;;;;5013529;28;20358;-70
2023/03/19 02:17:08;;;;;;;9.45;8.15;;;21.90;58.90;;;;;;5014575;28;20726;-72
2023/03/19 02:20:01;;;;;;;7.93;7.13;;;21.90;58.90;;;;;;5013937;28;20713;-72
2023/03/19 02:22:56;;;;;;;8.85;7.95;;;21.90;58.90;;;;;;5013920;28;20636;-71
2023/03/19 02:25:58;;;;;;;10.82;7.85;;;21.80;59.00;;;;;;5013349;28;20309;-71
2023/03/19 02:28:48;;;;;;;8.85;7.88;;;21.80;59.10;;;;;;5045771;28;20587;-71
2023/03/19 02:31:36;;;;;;;8.85;7.63;;;21.80;59.20;;;;;;5052968;28;20206;-72
2023/03/19 02:34:39;;;;;;;8.95;8.00;;;21.80;59.20;;;;;;5053588;28;20227;-72
2023/03/19 02:37:30;;;;;;;8.60;7.70;;;21.70;59.10;;;;;;5053057;28;20193;-73
2023/03/19 02:40:24;;;;;;;7.95;7.15;;;21.80;59.10;;;;;;5052880;28;20687;-71
2023/03/19 02:43:14;;;;;;;8.52;7.72;;;21.90;59.10;;;;;;5013940;28;20206;-70
2023/03/19 02:46:03;;;;;;;8.05;7.00;;;21.90;59.10;;;;;;5012687;28;20686;-70
2023/03/19 02:48:52;;;;;;;8.77;7.60;;;21.90;59.00;;;;;;5013265;28;20330;-72
2023/03/19 02:51:40;;;;;;;8.68;7.88;;;21.80;58.90;;;;;;5012806;28;20221;-70
2023/03/19 02:54:29;;;;;;;8.82;7.40;;;21.90;58.80;;;;;;5012957;28;20214;-72
2023/03/19 02:57:17;;;;;;;9.50;7.57;;;21.90;58.90;;;;;;5011790;28;20230;-71
2023/03/19 03:00:09;;;;;;;10.45;7.50;;;21.90;58.70;;;;;;5012182;28;20230;-72
2023/03/19 03:02:58;;;;;;;9.82;8.23;;;21.90;58.70;;;;;;5012792;28;20304;-73
2023/03/19 03:05:46;;;;;;;7.97;7.25;;;21.90;58.70;;;;;;5012261;28;20205;-72
2023/03/19 03:08:35;;;;;;;8.88;8.07;;;21.90;58.60;;;;;;5012180;28;20202;-70
2023/03/19 03:11:23;;;;;;;9.35;8.35;;;21.90;58.60;;;;;;5012558;28;20281;-70
2023/03/19 03:14:11;;;;;;;9.43;7.85;;;21.90;58.60;;;;;;5012226;28;20305;-72
2023/03/19 03:17:01;;;;;;;9.32;7.63;;;21.80;58.50;;;;;;5012752;28;20257;-71
2023/03/19 03:19:49;;;;;;;10.57;7.38;;;21.80;58.80;;;;;;5012182;28;20297;-72
2023/03/19 03:22:38;;;;;;;10.13;7.40;;;21.80;58.80;;;;;;5012369;28;20206;-72
2023/03/19 03:25:26;;;;;;;8.85;7.10;;;21.70;58.80;;;;;;5012563;28;20910;-69
2023/03/19 03:28:14;;;;;;;9.13;7.10;;;21.70;58.80;;;;;;5012344;28;20198;-70
2023/03/19 03:31:02;;;;;;;8.82;7.28;;;21.70;58.90;;;;;;5011814;28;20297;-72
2023/03/19 03:33:51;;;;;;;10.50;8.90;;;21.70;58.80;;;;;;5012254;28;20630;-70
2023/03/19 03:36:39;;;;;;;9.77;7.75;;;21.70;58.90;;;;;;5012150;28;20207;-72
2023/03/19 03:39:28;;;;;;;9.77;7.47;;;21.70;59.00;;;;;;5012248;28;20229;-71
2023/03/19 03:42:16;;;;;;;8.00;7.20;;;21.70;59.00;;;;;;5026687;28;20337;-72
2023/03/19 03:45:05;;;;;;;8.40;7.60;;;21.70;59.00;;;;;;5031840;28;20277;-72
2023/03/19 03:47:53;;;;;;;9.48;7.93;;;21.70;59.00;;;;;;5031823;28;20198;-71
2023/03/19 03:50:42;;;;;;;8.18;6.47;;;21.70;59.00;;;;;;5031667;28;20699;-73
2023/03/19 03:53:30;;;;;;;7.88;6.68;;;21.80;59.10;;;;;;5030472;28;20210;-71
2023/03/19 03:56:18;;;;;;;9.18;7.20;;;21.80;59.00;;;;;;5031524;28;20725;-70
2023/03/19 03:59:07;;;;;;;8.93;7.95;;;22.10;66.50;;;;;;5031055;28;20714;-70
2023/03/19 04:01:55;;;;;;;9.43;7.80;;;21.90;59.00;;;;;;5031343;28;20284;-71
2023/03/19 04:04:43;;;;;;;9.10;7.13;;;21.90;59.00;;;;;;5031601;28;20202;-72
2023/03/19 04:07:32;;;;;;;9.50;7.43;;;21.90;58.90;;;;;;5031176;28;20247;-72
2023/03/19 04:10:20;;;;;;;9.20;7.68;;;21.90;58.90;;;;;;5031511;28;20795;-72
2023/03/19 04:13:08;;;;;;;9.13;7.53;;;21.90;58.90;;;;;;5031756;28;20198;-71
2023/03/19 04:15:56;;;;;;;9.45;7.68;;;21.80;58.80;;;;;;5031471;28;20747;-72
2023/03/19 04:18:45;;;;;;;9.05;7.90;;;21.80;58.80;;;;;;5031502;28;20642;-71
2023/03/19 04:21:33;;;;;;;8.38;7.15;;;21.80;58.80;;;;;;5031116;28;20263;-71
2023/03/19 04:24:22;;;;;;;11.85;8.40;;;21.80;58.90;;;;;;5031307;28;20276;-72
2023/03/19 04:27:11;;;;;;;8.23;7.43;;;21.70;58.80;;;;;;5030041;28;20202;-71
2023/03/19 04:29:59;;;;;;;7.63;6.82;;;21.70;58.90;;;;;;5030568;28;20249;-69
2023/03/19 04:32:47;;;;;;;10.10;8.38;;;21.70;58.90;;;;;;5030769;28;20308;-72
2023/03/19 04:35:35;;;;;;;8.32;7.25;;;21.70;58.90;;;;;;5030194;28;20740;-72
2023/03/19 04:38:26;;;;;;;10.25;7.65;;;21.70;59.00;;;;;;5031308;28;20208;-71
2023/03/19 04:41:15;;;;;;;8.65;7.78;;;21.70;59.10;;;;;;5030368;28;20233;-72
2023/03/19 04:44:03;;;;;;;8.43;7.63;;;21.60;59.00;;;;;;5030662;28;20241;-72
2023/03/19 04:46:51;;;;;;;7.60;6.63;;;21.70;59.20;;;;;;5031028;28;20224;-71
2023/03/19 04:49:40;;;;;;;7.43;6.60;;;21.70;59.20;;;;;;5030144;28;20297;-71
2023/03/19 04:52:30;;;;;;;7.57;6.90;;;21.70;59.30;;;;;;5030236;28;20705;-71
2023/03/19 04:55:18;;;;;;;11.77;7.63;;;21.70;59.30;;;;;;5030242;28;20647;-70
2023/03/19 04:58:07;;;;;;;7.55;6.55;;;21.70;59.40;;;;;;5030356;28;20702;-72
2023/03/19 05:00:56;;;;;;;9.93;7.25;;;21.70;59.30;;;;;;5030103;28;20610;-70
2023/03/19 05:03:44;;;;;;;10.15;8.00;;;21.80;59.50;;;;;;5030156;28;20245;-70
2023/03/19 05:06:32;;;;;;;8.13;7.38;;;21.90;59.70;;;;;;5030781;28;20202;-72
2023/03/19 05:09:20;;;;;;;8.98;7.88;;;22.10;75.60;;;;;;5030833;28;20293;-71
2023/03/19 05:12:09;;;;;;;7.65;6.85;;;21.90;59.60;;;;;;5030658;28;20281;-70
2023/03/19 05:14:58;;;;;;;7.88;7.07;;;21.90;59.60;;;;;;5030817;28;20205;-72
2023/03/19 05:17:47;;;;;;;8.48;7.25;;;21.90;59.60;;;;;;5030398;28;20279;-71
2023/03/19 05:20:36;;;;;;;10.55;8.48;;;21.90;59.60;;;;;;5032812;28;20717;-73
2023/03/19 05:23:24;;;;;;;11.05;8.07;;;21.90;59.60;;;;;;5033559;28;20280;-71
2023/03/19 05:26:12;;;;;;;7.20;6.50;;;21.80;59.60;;;;;;5033950;28;20198;-69
2023/03/19 05:29:00;;;;;;;7.60;6.60;;;21.90;59.90;;;;;;5034923;28;20208;-69
2023/03/19 05:31:50;;;;;;;8.32;7.43;;;21.80;59.70;;;;;;5034110;28;20202;-71
2023/03/19 05:34:38;;;;;;;10.75;7.93;;;21.70;59.80;;;;;;5034375;28;20323;-72
2023/03/19 05:37:26;;;;;;;8.50;7.13;;;21.70;60.10;;;;;;5034098;28;20256;-71
2023/03/19 05:40:15;;;;;;;9.63;6.70;;;21.70;59.90;;;;;;5033743;28;20397;-70
2023/03/19 05:43:03;;;;;;;7.30;6.45;;;21.60;59.90;;;;;;5014145;28;20338;-70
2023/03/19 05:45:52;;;;;;;8.00;7.30;;;21.70;60.00;;;;;;5013707;28;20285;-73
2023/03/19 05:48:41;;;;;;;8.95;7.10;;;21.60;59.90;;;;;;5013745;28;20584;-71
2023/03/19 05:51:29;;;;;;;8.23;6.95;;;21.70;60.00;;;;;;5014135;28;20223;-71
2023/03/19 05:54:17;;;;;;;8.38;7.38;;;21.70;59.90;;;;;;5014211;28;20312;-71
2023/03/19 05:57:06;;;;;;;7.40;6.70;;;21.80;59.90;;;;;;5014722;28;20756;-72
2023/03/19 05:59:54;;;;;;;7.65;6.90;;;21.80;59.90;;;;;;5014431;28;20234;-69
2023/03/19 06:02:42;;;;;;;9.82;7.75;;;21.80;59.80;;;;;;5014308;28;20290;-70
2023/03/19 06:05:32;;;;;;;8.95;7.75;;;21.90;60.00;;;;;;5013994;28;20191;-71
2023/03/19 06:08:20;;;;;;;8.32;7.47;;;21.90;59.90;;;;;;5014534;28;20206;-70
2023/03/19 06:11:08;;;;;;;8.57;7.78;;;21.90;59.80;;;;;;5013926;28;20243;-69
2023/03/19 06:13:56;;;;;;;7.88;7.05;;;21.80;59.90;;;;;;5013911;28;20207;-70
2023/03/19 06:16:44;;;;;;;8.05;7.25;;;21.90;59.90;;;;;;5013222;28;20847;-69
2023/03/19 06:19:32;;;;;;;7.32;6.55;;;21.90;60.00;;;;;;5013777;28;20730;-71
2023/03/19 06:22:22;;;;;;;9.68;7.72;;;21.90;59.90;;;;;;5013372;28;20737;-71
2023/03/19 06:25:10;;;;;;;8.57;6.80;;;21.80;60.00;;;;;;5013604;28;20199;-71
2023/03/19 06:27:59;;;;;;;9.15;7.32;;;21.80;60.20;;;;;;5013011;28;20201;-70
2023/03/19 06:30:47;;;;;;;8.25;7.45;;;21.80;60.80;;;;;;5013171;28;20342;-70
2023/03/19 06:33:35;;;;;;;9.80;7.78;;;21.80;60.60;;;;;;5013849;28;20284;-72
2023/03/19 06:36:24;;;;;;;9.00;8.10;;;21.70;61.10;;;;;;5012663;28;20299;-70
2023/03/19 06:39:14;;;;;;;8.85;7.82;;;21.50;71.20;;;;;;5012687;28;20245;-73
2023/03/19 06:42:02;;;;;;;7.82;7.03;;;21.50;60.70;;;;;;5026955;28;20696;-71
2023/03/19 06:44:50;;;;;;;8.90;7.00;;;21.60;60.90;;;;;;5033654;28;20198;-71
2023/03/19 06:47:41;;;;;;;7.72;6.93;;;21.50;61.20;;;;;;5033799;28;20575;-72
2023/03/19 06:50:28;;;;;;;10.80;7.13;;;21.50;61.10;;;;;;5033218;28;20221;-73
2023/03/19 06:53:16;;;;;;;7.47;6.78;;;21.50;60.90;;;;;;5033196;28;20284;-71
2023/03/19 06:56:06;;;;;;;6.88;6.22;;;21.60;61.00;;;;;;5032326;28;20419;-72
2023/03/19 06:58:54;;;;;;;6.50;5.82;;;21.50;61.00;;;;;;5033111;28;20287;-70
2023/03/19 07:01:42;;;;;;;8.40;6.90;;;21.60;61.10;;;;;;5032773;28;20281;-70
2023/03/19 07:04:30;;;;;;;9.48;6.78;;;21.70;61.00;;;;;;5032800;28;20240;-70
2023/03/19 07:07:19;;;;;;;8.98;6.03;;;21.70;61.10;;;;;;5031357;28;20419;-73
2023/03/19 07:10:08;;;;;;;8.70;7.80;;;21.80;61.10;;;;;;5033095;28;20257;-73
2023/03/19 07:12:57;;;;;;;9.43;6.60;;;21.80;61.00;;;;;;5031725;28;20401;-72
2023/03/19 07:15:47;;;;;;;7.20;6.50;;;21.90;61.20;;;;;;5032533;28;20682;-71
2023/03/19 07:18:35;;;;;;;6.50;5.90;;;21.90;61.10;;;;;;5031859;28;20679;-73
2023/03/19 07:21:23;;;;;;;6.50;5.80;;;21.90;61.30;;;;;;5032156;28;20279;-71
2023/03/19 07:24:11;;;;;;;7.00;5.78;;;21.90;61.30;;;;;;5032896;28;20234;-72
2023/03/19 07:26:59;;;;;;;7.55;5.93;;;21.90;61.30;;;;;;5032620;28;20285;-72
2023/03/19 07:29:49;;;;;;;7.97;7.18;;;21.90;61.40;;;;;;5031074;28;20408;-70
2023/03/19 07:32:37;;;;;;;8.13;6.55;;;21.90;61.90;;;;;;5031177;28;20289;-71
2023/03/19 07:35:25;;;;;;;7.10;6.18;;;21.90;61.90;;;;;;5032141;28;20683;-69
2023/03/19 07:38:14;;;;;;;6.93;6.28;;;21.80;61.60;;;;;;5032020;28;20225;-72
2023/03/19 07:41:02;;;;;;;9.43;7.68;;;21.70;62.10;;;;;;5030751;28;20218;-73
2023/03/19 07:43:50;;;;;;;7.22;6.50;;;21.80;62.30;;;;;;5031243;28;20208;-71
2023/03/19 07:46:40;;;;;;;7.10;6.47;;;21.70;62.00;;;;;;5031298;28;20328;-72
2023/03/19 07:49:28;;;;;;;6.57;5.93;;;21.60;61.60;;;;;;5031797;28;20221;-70
2023/03/19 07:52:17;;;;;;;9.90;5.90;;;21.70;61.70;;;;;;5030999;28;20198;-73
2023/03/19 07:55:06;;;;;;;7.07;6.38;;;21.70;61.70;;;;;;5031067;28;20234;-71
2023/03/19 07:57:54;;;;;;;7.93;6.88;;;21.70;61.70;;;;;;5031174;28;20353;-71
2023/03/19 08:00:43;;;;;;;6.60;6.00;;;21.70;61.70;;;;;;5032969;28;20230;-69
2023/03/19 08:03:33;;;;;;;6.57;5.97;;;21.70;61.60;;;;;;5032044;28;20710;-67
2023/03/19 08:06:21;;;;;;;7.05;5.82;;;21.70;61.60;;;;;;5032645;28;20701;-70
2023/03/19 08:09:09;;;;;;;6.72;6.05;;;21.80;71.80;;;;;;5031707;28;20198;-69
2023/03/19 08:11:57;;;;;;;6.82;6.13;;;21.80;61.50;;;;;;5032231;28;20344;-68
2023/03/19 08:14:45;;;;;;;9.93;6.43;;;21.80;61.50;;;;;;5032418;28;20286;-69
2023/03/19 08:17:36;;;;;;;7.18;6.00;;;21.80;61.60;;;;;;5032015;28;20301;-70
2023/03/19 08:20:26;;;;;;;7.85;6.72;;;21.90;61.60;;;;;;5032012;28;20715;-68
2023/03/19 08:23:15;;;;;;;7.10;6.50;;;22.00;61.80;;;;;;5031699;28;20202;-69
2023/03/19 08:26:04;;;;;;;8.55;6.97;;;21.90;61.60;;;;;;5032392;28;20205;-69
2023/03/19 08:28:52;;;;;;;6.90;5.82;;;22.00;62.00;;;;;;5031574;28;20578;-67
2023/03/19 08:31:40;;;;;;;6.95;6.30;;;22.00;61.70;;;;;;5031567;28;20229;-70
2023/03/19 08:34:28;;;;;;;7.47;6.72;;;21.90;62.00;;;;;;5031346;28;20671;-69
2023/03/19 08:37:17;;;;;;;9.05;7.13;;;21.90;61.80;;;;;;5031911;28;20304;-68
2023/03/19 08:40:07;;;;;;;9.93;6.72;;;21.90;62.20;;;;;;5032689;28;20241;-67
2023/03/19 08:42:55;;;;;;;7.15;6.32;;;21.90;62.40;;;;;;5012595;28;20248;-67
2023/03/19 08:45:43;;;;;;;9.88;7.15;;;21.80;62.30;;;;;;5012398;28;20238;-68
2023/03/19 08:48:32;;;;;;;9.63;6.97;;;21.80;62.50;;;;;;5012999;28;20696;-68
2023/03/19 08:51:20;;;;;;;7.63;6.68;;;21.70;62.30;;;;;;5012785;28;20778;-68
2023/03/19 08:54:10;;;;;;;6.70;6.10;;;21.70;62.20;;;;;;5013924;28;20276;-66
2023/03/19 08:56:59;;;;;;;7.32;6.60;;;21.70;62.20;;;;;;5016758;28;20221;-69
2023/03/19 08:59:47;;;;;;;9.68;6.90;;;21.70;62.20;;;;;;5016005;28;20273;-70
2023/03/19 09:02:35;;;;;;;8.60;6.28;;;21.70;62.20;;;;;;5015904;28;20283;-68
2023/03/19 09:05:23;;;;;;;6.97;6.20;;;21.80;62.20;;;;;;5015950;28;20285;-68
2023/03/19 09:08:11;;;;;;;9.43;6.60;;;21.90;62.20;;;;;;5016485;28;20276;-69
2023/03/19 09:11:00;;;;;;;6.88;6.20;;;21.90;62.20;;;;;;5015835;28;20656;-67
2023/03/19 09:13:49;;;;;;;6.90;5.93;;;22.00;62.20;;;;;;5016059;28;20203;-67
2023/03/19 09:16:37;;;;;;;7.05;5.93;;;22.00;62.00;;;;;;5015702;28;20761;-70
2023/03/19 09:19:25;;;;;;;6.72;6.03;;;22.20;78.10;;;;;;5016005;28;20325;-68
2023/03/19 09:22:14;;;;;;;6.45;5.78;;;22.10;62.10;;;;;;5014876;28;20202;-68
2023/03/19 09:25:02;;;;;;;6.35;5.55;;;22.10;62.20;;;;;;5016485;28;20640;-70
2023/03/19 09:27:51;;;;;;;8.07;7.03;;;22.10;62.20;;;;;;5016163;28;20273;-69
2023/03/19 09:30:39;;;;;;;7.93;6.43;;;22.10;62.50;;;;;;5015681;28;20222;-67
2023/03/19 09:33:27;;;;;;;7.07;6.13;;;22.10;62.40;;;;;;5015283;28;20290;-69
2023/03/19 09:36:15;;;;;;;6.57;5.65;;;22.00;62.40;;;;;;5015475;28;20256;-69
2023/03/19 09:39:05;;;;;;;7.82;6.20;;;22.00;62.50;;;;;;5015507;28;20328;-71
2023/03/19 09:42:03;;;;;;;6.07;5.43;;;22.00;62.80;;;;;;5027523;28;20240;-67
2023/03/19 09:44:53;;;;;;;6.47;5.88;;;22.00;63.30;;;;;;5035211;28;20202;-67
2023/03/19 09:47:42;;;;;;;10.45;6.90;;;22.00;62.90;;;;;;5034880;28;20194;-67
2023/03/19 09:50:33;;;;;;;7.45;5.32;;;20.90;62.30;;;;;;5034806;28;20245;-71
2023/03/19 09:53:36;;;;;;;7.55;5.60;;;21.90;62.90;;;;;;5034741;28;20194;-70
2023/03/19 09:56:25;;;;;;;6.55;5.78;;;21.80;62.80;;;;;;5034316;28;20279;-67
2023/03/19 09:59:13;;;;;;;7.45;5.70;;;21.80;78.60;;;;;;5034331;28;20225;-67
2023/03/19 10:02:37;;;;;;;6.22;5.63;;;21.80;62.90;;;;;;5034236;28;20288;-72
2023/03/19 10:05:36;;;;;;;7.18;4.95;;;21.90;63.00;;;;;;5032593;28;20324;-67
2023/03/19 10:08:44;;;;;;;6.38;5.78;;;21.90;63.40;;;;;;5034376;28;20213;-67
2023/03/19 10:11:41;;;;;;;6.38;5.00;;;21.90;62.90;;;;;;5034229;28;20252;-68
2023/03/19 10:15:05;;;;;;;6.95;5.60;;;21.90;62.80;;;;;;5034797;28;20695;-68
2023/03/19 10:17:58;;;;;;;6.10;5.50;;;21.90;62.90;;;;;;5033682;28;20297;-69
2023/03/19 10:20:51;;;;;;;7.03;5.95;;;22.00;62.90;;;;;;5034170;28;20257;-68
2023/03/19 10:23:44;;;;;;;6.55;5.88;;;22.00;63.10;;;;;;5034434;28;20228;-67
2023/03/19 10:26:34;;;;;;;6.25;5.65;;;22.00;63.10;;;;;;5034342;28;20678;-67
2023/03/19 10:29:24;;;;;;;5.38;4.88;;;21.90;78.90;;;;;;5033550;28;20675;-68
2023/03/19 10:32:18;;;;;;;5.22;4.80;;;22.00;63.30;;;;;;5033611;28;20289;-68
2023/03/19 10:35:17;;;;;;;5.60;5.10;;;22.00;63.00;;;;;;5034364;28;20213;-68
2023/03/19 10:38:18;;;;;;;5.70;5.20;;;22.00;63.20;;;;;;5033450;28;20308;-67
2023/03/19 10:41:20;;;;;;;8.85;5.38;;;22.00;63.20;;;;;;5033244;28;20209;-66
2023/03/19 10:44:16;;;;;;;5.75;5.13;;;22.00;63.30;;;;;;5033342;28;20233;-67
2023/03/19 10:47:12;;;;;;;5.45;4.95;;;22.00;63.20;;;;;;5033679;28;20215;-68
2023/03/19 10:50:00;;;;;;;6.50;5.53;;;22.00;63.30;;;;;;5033998;28;20337;-66
2023/03/19 10:52:52;;;;;;;5.55;4.85;;;22.00;63.20;;;;;;5032857;28;20202;-67
2023/03/19 10:55:54;;;;;;;6.28;5.20;;;22.00;63.20;;;;;;5033584;28;20765;-69
2023/03/19 10:58:56;;;;;;;6.10;5.50;;;22.00;63.30;;;;;;5034111;28;20221;-67
2023/03/19 11:01:45;;;;;;;5.40;4.90;;;22.00;63.30;;;;;;5032948;28;20320;-69
2023/03/19 11:04:33;;;;;;;6.03;5.00;;;22.00;63.40;;;;;;5036434;28;20287;-69
2023/03/19 11:07:21;;;;;;;5.70;4.93;;;22.00;63.50;;;;;;5034485;28;20205;-68
2023/03/19 11:10:15;;;;;;;5.70;5.20;;;22.00;63.70;;;;;;5033512;28;20297;-67
2023/03/19 11:13:06;;;;;;;7.22;5.05;;;22.00;63.50;;;;;;5033396;28;20272;-68
2023/03/19 11:15:59;;;;;;;6.55;4.75;;;22.00;63.30;;;;;;5034776;28;20201;-66
2023/03/19 11:18:48;;;;;;;4.95;4.47;;;22.00;63.60;;;;;;5032101;28;20222;-66
2023/03/19 11:21:36;;;;;;;4.55;4.15;;;22.00;63.50;;;;;;5033866;28;20225;-67
2023/03/19 11:24:26;;;;;;;4.63;4.13;;;22.00;63.30;;;;;;5032581;28;20270;-66
2023/03/19 11:27:16;;;;;;;5.63;5.03;;;23.00;64.40;;;;;;5033015;28;20229;-65
2023/03/19 11:30:13;;;;;;;5.28;4.75;;;22.10;63.50;;;;;;5032705;28;20639;-67
2023/03/19 11:33:35;;;;;;;6.20;4.35;;;22.10;63.40;;;;;;5032924;28;20248;-69
2023/03/19 11:36:27;;;;;;;5.30;4.47;;;21.90;63.20;;;;;;5001730;28;20355;-68
2023/03/19 11:39:29;;;;;;;6.88;4.65;;;22.00;77.90;;;;;;5090137;28;20524;-66
2023/03/19 11:42:39;;;;;;;5.55;4.78;;;22.10;63.50;;;;;;5089126;28;20204;-67
2023/03/19 11:45:33;;;;;;;4.95;4.55;;;22.10;64.10;;;;;;5109256;28;20290;-68
2023/03/19 11:48:35;;;;;;;4.97;4.50;;;22.10;63.30;;;;;;5109073;28;20210;-67
2023/03/19 11:51:30;;;;;;;5.63;4.68;;;22.10;63.40;;;;;;5109465;28;20225;-67
2023/03/19 11:54:25;;;;;;;5.18;4.65;;;22.10;63.50;;;;;;5109479;28;20257;-67
2023/03/19 11:57:23;;;;;;;4.93;4.43;;;22.00;63.50;;;;;;5108905;28;20205;-67
2023/03/19 12:00:22;;;;;;;6.38;5.75;;;22.00;63.60;;;;;;5110306;28;20233;-67
2023/03/19 12:03:32;;;;;;;8.60;4.82;;;22.00;63.60;;;;;;5109922;28;20203;-67
2023/03/19 12:06:33;;;;;;;5.25;4.75;;;22.10;63.80;;;;;;5108828;28;20284;-68
2023/03/19 12:09:29;;;;;;;5.88;4.60;;;22.30;78.50;;;;;;5109024;28;20213;-66
2023/03/19 12:12:24;;;;;;;5.65;5.03;;;22.10;63.60;;;;;;5108699;28;20615;-66
2023/03/19 12:15:22;;;;;;;4.45;4.10;;;22.10;63.50;;;;;;5108284;28;20200;-67
2023/03/19 12:18:27;;;;;;;5.13;4.63;;;22.20;63.50;;;;;;5109900;28;20312;-67
2023/03/19 12:21:22;;;;;;;5.15;4.65;;;22.10;63.50;;;;;;5108509;28;20227;-67
2023/03/19 12:24:19;;;;;;;5.13;3.97;;;22.20;64.20;;;;;;5109259;28;20225;-66
2023/03/19 12:27:21;;;;;;;4.68;4.28;;;22.30;63.40;;;;;;5107230;28;20383;-66
2023/03/19 12:30:19;;;;;;;6.85;4.93;;;22.30;63.60;;;;;;5107818;28;20527;-67
2023/03/19 12:33:14;;;;;;;5.60;4.65;;;22.30;63.50;;;;;;5108242;28;20237;-68
2023/03/19 12:36:07;;;;;;;4.32;3.92;;;22.30;63.60;;;;;;5107555;28;20202;-68
2023/03/19 12:39:02;;;;;;;4.85;4.40;;;22.30;63.40;;;;;;5107955;28;20219;-69
2023/03/19 12:41:55;;;;;;;5.00;4.50;;;22.30;64.30;;;;;;5107416;28;20239;-66
2023/03/19 12:44:47;;;;;;;4.65;4.25;;;22.30;63.60;;;;;;5107928;28;20286;-67
2023/03/19 12:47:39;;;;;;;4.90;4.13;;;22.20;64.30;;;;;;5108653;28;20210;-67
2023/03/19 12:50:29;;;;;;;5.57;4.20;;;22.20;63.60;;;;;;5089853;28;20297;-68
2023/03/19 12:53:33;;;;;;;5.78;4.43;;;22.20;63.70;;;;;;5094196;28;20200;-67
2023/03/19 12:56:29;;;;;;;6.30;4.65;;;22.20;63.80;;;;;;5094470;28;20207;-66
2023/03/19 12:59:28;;;;;;;4.63;4.20;;;21.90;77.60;;;;;;5093789;28;20647;-66
2023/03/19 13:02:24;;;;;;;5.03;4.50;;;22.10;63.90;;;;;;5094710;28;20279;-68
2023/03/19 13:05:24;;;;;;;5.40;4.90;;;22.10;63.80;;;;;;5094820;28;20200;-67
2023/03/19 13:08:17;;;;;;;5.05;4.65;;;22.10;63.90;;;;;;5094224;28;20278;-69
2023/03/19 13:11:12;;;;;;;5.05;4.57;;;22.20;63.80;;;;;;5094426;28;20255;-68
2023/03/19 13:14:06;;;;;;;5.10;4.45;;;22.20;63.70;;;;;;5094300;28;20326;-68
2023/03/19 13:17:00;;;;;;;4.82;3.90;;;22.30;63.70;;;;;;5093497;28;20279;-68
2023/03/19 13:19:53;;;;;;;4.25;3.83;;;22.30;64.10;;;;;;5094688;28;20773;-67
2023/03/19 13:22:46;;;;;;;4.43;4.03;;;22.30;63.60;;;;;;5094419;28;20695;-68
2023/03/19 13:25:38;;;;;;;5.55;4.47;;;22.30;63.60;;;;;;5093046;28;20690;-68
2023/03/19 13:28:29;;;;;;;4.35;3.78;;;22.30;63.50;;;;;;5094068;28;20278;-66
2023/03/19 13:31:20;;;;;;;4.15;3.80;;;22.30;63.60;;;;;;5094212;28;20306;-67
2023/03/19 13:34:20;;;;;;;4.53;3.90;;;22.30;63.50;;;;;;5094042;28;20199;-67
2023/03/19 13:37:14;;;;;;;4.32;4.00;;;22.30;63.70;;;;;;5093499;28;20626;-67
2023/03/19 13:40:05;;;;;;;4.18;3.88;;;22.30;63.80;;;;;;5094512;28;20327;-67
2023/03/19 13:42:57;;;;;;;5.25;4.05;;;22.30;63.90;;;;;;5071933;28;20263;-69
2023/03/19 13:45:45;;;;;;;4.97;4.10;;;22.30;63.70;;;;;;5072811;28;20562;-67
2023/03/19 13:48:37;;;;;;;4.80;3.78;;;22.30;63.80;;;;;;5074254;28;20251;-68
2023/03/19 13:51:29;;;;;;;4.68;3.88;;;22.30;63.90;;;;;;5073065;28;20224;-68
2023/03/19 13:54:22;;;;;;;5.07;3.88;;;22.30;63.80;;;;;;5073375;28;20677;-68
2023/03/19 13:57:21;;;;;;;4.10;3.58;;;22.30;63.90;;;;;;5072408;28;20280;-68
2023/03/19 14:00:52;;;;;;;4.15;3.75;;;22.30;63.80;;;;;;5072032;28;20270;-68
2023/03/19 14:03:51;;;;;;;4.68;3.47;;;22.30;63.60;;;;;;5071572;28;20196;-68
2023/03/19 14:06:42;;;;;;;3.55;3.25;;;23.60;65.00;;;;;;5071466;28;20576;-68
2023/03/19 14:09:35;;;;;;;4.05;3.53;;;22.30;63.60;;;;;;5072221;28;20716;-67
2023/03/19 14:12:33;;;;;;;4.13;3.72;;;22.40;63.60;;;;;;5071747;28;20280;-66
2023/03/19 14:15:23;;;;;;;3.88;3.58;;;22.40;63.50;;;;;;5073199;28;20200;-67
2023/03/19 14:18:18;;;;;;;4.13;3.53;;;22.50;63.70;;;;;;5071960;28;20204;-66
2023/03/19 14:21:10;;;;;;;3.90;3.60;;;22.50;63.60;;;;;;5071704;28;20220;-67
2023/03/19 14:24:27;;;;;;;4.45;4.05;;;22.50;63.60;;;;;;5072420;28;20275;-67
2023/03/19 14:27:37;;;;;;;4.15;3.50;;;22.50;63.50;;;;;;5071599;28;20271;-67
2023/03/19 14:30:30;;;;;;;3.88;3.17;;;22.50;63.30;;;;;;5072378;28;20682;-67
2023/03/19 14:33:21;;;;;;;3.83;3.53;;;22.50;63.50;;;;;;5071235;28;20776;-67
2023/03/19 14:36:14;;;;;;;4.22;3.80;;;22.50;63.50;;;;;;5071469;28;20201;-66
2023/03/19 14:39:06;;;;;;;4.40;3.95;;;22.50;63.50;;;;;;5071323;28;20221;-67
2023/03/19 14:42:01;;;;;;;3.83;3.45;;;22.50;63.50;;;;;;5083741;28;20204;-66
2023/03/19 14:45:31;;;;;;;5.68;3.83;;;22.50;63.50;;;;;;5092802;28;20228;-68
2023/03/19 14:48:56;;;;;;;4.05;3.75;;;22.50;63.60;;;;;;5090797;28;20234;-67
2023/03/19 14:52:04;;;;;;;3.60;3.30;;;22.50;63.50;;;;;;5091641;28;20228;-68